createdAt,value
2023-05-11T00:01:08.489Z,1.15
2023-05-11T00:03:35.463Z,0.70
2023-05-11T00:08:28.057Z,0.90
2023-05-11T00:10:54.312Z,1.25
2023-05-11T00:13:20.825Z,0.80
2023-05-11T00:15:47.144Z,0.85
2023-05-11T00:18:13.454Z,0.73
2023-05-11T00:20:39.685Z,0.85
2023-05-11T00:23:06.207Z,0.90
2023-05-11T00:25:32.461Z,1.48
2023-05-11T00:27:58.749Z,1.10
2023-05-11T00:30:25.113Z,1.10
2023-05-11T00:32:52.151Z,1.33
2023-05-11T00:35:18.780Z,1.23
2023-05-11T00:37:45.303Z,1.00
2023-05-11T00:40:11.631Z,1.20
2023-05-11T00:42:37.880Z,1.00
2023-05-11T00:45:04.319Z,1.20
2023-05-11T00:47:30.749Z,1.33
2023-05-11T00:49:57.543Z,0.90
2023-05-11T00:52:23.843Z,1.48
2023-05-11T00:54:50.179Z,1.15
2023-05-11T00:57:16.666Z,1.00
2023-05-11T00:59:42.959Z,0.95
2023-05-11T01:02:09.273Z,1.20
2023-05-11T01:04:35.878Z,1.13
2023-05-11T01:07:17.503Z,1.23
2023-05-11T01:10:07.030Z,1.08
2023-05-11T01:12:39.440Z,1.05
2023-05-11T01:15:13.802Z,0.98
2023-05-11T01:17:45.947Z,1.27
2023-05-11T01:20:16.969Z,1.25
2023-05-11T01:23:02.070Z,1.38
2023-05-11T01:25:47.343Z,0.90
2023-05-11T01:28:32.386Z,1.00
2023-05-11T01:31:03.817Z,1.30
2023-05-11T01:33:34.847Z,1.33
2023-05-11T01:36:04.249Z,1.08
2023-05-11T01:38:32.734Z,1.42
2023-05-11T01:41:00.588Z,1.30
2023-05-11T01:43:27.921Z,1.17
2023-05-11T01:45:56.498Z,1.38
2023-05-11T01:48:24.369Z,1.42
2023-05-11T01:50:51.135Z,1.27
2023-05-11T01:53:17.945Z,1.23
2023-05-11T01:55:45.228Z,1.50
2023-05-11T01:58:13.243Z,1.40
2023-05-11T02:00:39.928Z,1.50
2023-05-11T02:03:06.936Z,1.63
2023-05-11T02:08:01.572Z,1.42
2023-05-11T02:10:28.162Z,1.40
2023-05-11T02:12:55.377Z,1.63
2023-05-11T02:15:22.270Z,1.25
2023-05-11T02:20:15.032Z,1.35
2023-05-11T02:22:42.461Z,1.33
2023-05-11T02:25:09.357Z,1.40
2023-05-11T02:30:05.963Z,1.17
2023-05-11T02:32:33.682Z,1.35
2023-05-11T02:35:23.187Z,1.48
2023-05-11T02:37:49.980Z,1.45
2023-05-11T02:40:25.108Z,1.50
2023-05-11T02:42:54.893Z,1.20
2023-05-11T02:45:22.277Z,1.30
2023-05-11T02:47:53.034Z,1.30
2023-05-11T02:50:20.613Z,1.42
2023-05-11T02:52:48.364Z,1.40
2023-05-11T02:55:16.475Z,1.45
2023-05-11T02:57:43.289Z,1.40
2023-05-11T03:00:10.760Z,1.23
2023-05-11T03:02:37.039Z,1.50
2023-05-11T03:05:04.664Z,1.20
2023-05-11T03:07:31.413Z,1.48
2023-05-11T03:09:57.636Z,1.38
2023-05-11T03:12:24.017Z,1.45
2023-05-11T03:14:50.503Z,1.45
2023-05-11T03:17:17.538Z,1.48
2023-05-11T03:22:10.556Z,1.63
2023-05-11T03:24:37.702Z,1.77
2023-05-11T03:27:04.357Z,1.60
2023-05-11T03:29:31.818Z,1.70
2023-05-11T03:31:58.161Z,1.40
2023-05-11T03:34:24.438Z,1.67
2023-05-11T03:36:51.098Z,1.67
2023-05-11T03:39:17.659Z,2.00
2023-05-11T03:41:45.855Z,2.28
2023-05-11T03:44:13.473Z,1.67
2023-05-11T03:46:40.933Z,1.60
2023-05-11T03:49:07.740Z,1.88
2023-05-11T03:51:35.021Z,1.80
2023-05-11T03:54:01.343Z,1.80
2023-05-11T03:56:27.591Z,1.70
2023-05-11T03:58:53.996Z,2.03
2023-05-11T04:01:20.615Z,1.70
2023-05-11T04:03:48.562Z,1.60
2023-05-11T04:06:15.939Z,1.70
2023-05-11T04:08:42.379Z,1.70
2023-05-11T04:11:08.675Z,1.55
2023-05-11T04:13:34.877Z,1.70
2023-05-11T04:16:01.236Z,1.75
2023-05-11T04:18:27.565Z,1.70
2023-05-11T04:20:53.809Z,1.67
2023-05-11T04:23:20.064Z,1.58
2023-05-11T04:25:46.292Z,2.03
2023-05-11T04:28:12.557Z,1.40
2023-05-11T04:30:38.785Z,1.60
2023-05-11T04:33:05.453Z,2.10
2023-05-11T04:35:31.727Z,2.15
2023-05-11T04:37:58.004Z,2.00
2023-05-11T04:40:24.255Z,2.63
2023-05-11T04:42:50.625Z,2.30
2023-05-11T04:45:17.473Z,2.70
2023-05-11T04:47:43.725Z,2.58
2023-05-11T04:50:10.256Z,2.75
2023-05-11T04:52:36.534Z,3.53
2023-05-11T04:55:02.761Z,3.95
2023-05-11T04:57:28.994Z,3.33
2023-05-11T04:59:55.876Z,3.47
2023-05-11T05:02:22.177Z,3.90
2023-05-11T05:04:48.388Z,3.50
2023-05-11T05:07:14.631Z,3.65
2023-05-11T05:09:42.428Z,3.55
2023-05-11T05:12:09.985Z,4.25
2023-05-11T05:14:36.236Z,4.28
2023-05-11T05:17:02.511Z,3.15
2023-05-11T05:19:28.802Z,2.90
2023-05-11T05:21:55.009Z,3.58
2023-05-11T05:24:21.288Z,3.30
2023-05-11T05:26:47.547Z,3.70
2023-05-11T05:29:13.814Z,3.92
2023-05-11T05:31:40.081Z,4.25
2023-05-11T05:34:06.550Z,4.38
2023-05-11T05:36:33.072Z,4.20
2023-05-11T05:38:59.349Z,4.90
2023-05-11T05:41:25.681Z,4.82
2023-05-11T05:43:52.013Z,4.63
2023-05-11T05:46:18.519Z,4.78
2023-05-11T05:48:44.760Z,4.57
2023-05-11T05:51:11.055Z,4.40
2023-05-11T05:53:37.797Z,4.35
2023-05-11T05:56:04.110Z,4.53
2023-05-11T05:58:30.339Z,4.80
2023-05-11T06:00:56.599Z,4.90
2023-05-11T06:03:23.019Z,4.97
2023-05-11T06:05:49.450Z,4.88
2023-05-11T06:08:16.176Z,5.80
2023-05-11T06:10:42.397Z,5.20
2023-05-11T06:13:08.903Z,5.63
2023-05-11T06:15:35.262Z,6.13
2023-05-11T06:18:01.571Z,6.75
2023-05-11T06:20:27.882Z,6.35
2023-05-11T06:22:54.125Z,6.53
2023-05-11T06:25:20.379Z,6.75
2023-05-11T06:27:46.740Z,7.40
2023-05-11T06:30:13.197Z,6.07
2023-05-11T06:32:39.462Z,6.97
2023-05-11T06:35:06.216Z,7.22
2023-05-11T06:37:32.662Z,5.95
2023-05-11T06:39:59.146Z,5.97
2023-05-11T06:42:25.637Z,6.22
2023-05-11T06:44:51.927Z,6.38
2023-05-11T06:47:18.284Z,6.70
2023-05-11T06:49:44.916Z,6.38
2023-05-11T06:52:11.175Z,5.93
2023-05-11T06:54:37.435Z,7.13
2023-05-11T06:57:03.738Z,7.32
2023-05-11T06:59:30.392Z,7.15
2023-05-11T07:01:56.616Z,6.63
2023-05-11T07:04:22.883Z,8.18
2023-05-11T07:06:49.243Z,7.43
2023-05-11T07:09:15.476Z,7.18
2023-05-11T07:11:41.732Z,6.45
2023-05-11T07:14:08.413Z,6.80
2023-05-11T07:16:38.628Z,7.00
2023-05-11T07:19:05.390Z,6.32
2023-05-11T07:21:32.744Z,6.47
2023-05-11T07:23:59.308Z,7.55
2023-05-11T07:26:25.557Z,7.03
2023-05-11T07:28:51.982Z,6.68
2023-05-11T07:31:18.315Z,6.60
2023-05-11T07:33:44.550Z,6.68
2023-05-11T07:36:10.853Z,6.85
2023-05-11T07:38:37.595Z,6.22
2023-05-11T07:41:06.458Z,6.03
2023-05-11T07:43:33.188Z,5.75
2023-05-11T07:45:59.548Z,6.10
2023-05-11T07:48:25.920Z,6.03
2023-05-11T07:50:52.162Z,5.95
2023-05-11T07:53:18.381Z,5.93
2023-05-11T07:55:44.629Z,5.22
2023-05-11T07:58:10.976Z,5.32
2023-05-11T08:00:37.584Z,5.15
2023-05-11T08:03:04.198Z,7.28
2023-05-11T08:05:30.633Z,5.35
2023-05-11T08:07:56.891Z,6.13
2023-05-11T08:10:23.261Z,6.13
2023-05-11T08:12:49.552Z,5.82
2023-05-11T08:15:15.762Z,5.68
2023-05-11T08:17:43.202Z,5.05
2023-05-11T08:20:10.167Z,5.57
2023-05-11T08:22:36.433Z,5.78
2023-05-11T08:25:03.562Z,5.40
2023-05-11T08:27:29.860Z,5.43
2023-05-11T08:29:56.094Z,5.38
2023-05-11T08:32:22.396Z,5.40
2023-05-11T08:34:48.751Z,5.70
2023-05-11T08:37:15.102Z,5.35
2023-05-11T08:39:47.329Z,5.50
2023-05-11T08:42:16.163Z,5.65
2023-05-11T08:44:43.836Z,6.20
2023-05-11T08:47:22.665Z,5.70
2023-05-11T08:49:50.228Z,6.22
2023-05-11T08:52:18.007Z,5.57
2023-05-11T08:54:44.790Z,6.03
2023-05-11T08:57:12.426Z,5.53
2023-05-11T08:59:39.093Z,5.13
2023-05-11T09:02:06.251Z,6.07
2023-05-11T09:04:33.303Z,5.38
2023-05-11T09:06:59.886Z,5.18
2023-05-11T09:09:26.123Z,4.95
2023-05-11T09:11:54.024Z,4.95
2023-05-11T09:16:52.845Z,4.20
2023-05-11T09:19:19.678Z,4.63
2023-05-11T09:24:13.022Z,4.40
2023-05-11T09:26:39.300Z,4.75
2023-05-11T09:29:05.695Z,4.70
2023-05-11T09:31:35.448Z,5.57
2023-05-11T09:34:18.127Z,4.78
2023-05-11T09:36:45.508Z,4.03
2023-05-11T09:41:41.814Z,3.28
2023-05-11T09:44:13.568Z,3.75
2023-05-11T09:46:40.695Z,4.07
2023-05-11T09:49:07.358Z,4.05
2023-05-11T09:51:34.706Z,4.00
2023-05-11T09:54:01.516Z,3.72
2023-05-11T09:56:47.607Z,3.80
2023-05-11T09:59:17.372Z,4.45
2023-05-11T10:01:44.088Z,4.47
2023-05-11T10:04:22.248Z,4.20
2023-05-11T10:06:50.847Z,3.20
2023-05-11T10:09:18.410Z,4.07
2023-05-11T10:11:45.722Z,3.60
2023-05-11T10:14:12.585Z,4.55
2023-05-11T10:19:06.151Z,4.00
2023-05-11T10:21:33.855Z,3.55
2023-05-11T10:24:00.620Z,4.13
2023-05-11T10:26:27.193Z,5.00
2023-05-11T10:28:53.495Z,3.63
2023-05-11T10:31:24.002Z,3.17
2023-05-11T10:33:53.621Z,3.15
2023-05-11T10:36:22.021Z,3.22
2023-05-11T10:38:48.274Z,7.78
2023-05-11T10:41:34.768Z,4.93
2023-05-11T10:44:21.324Z,2.85
2023-05-11T10:47:03.949Z,3.95
2023-05-11T10:49:49.057Z,3.30
2023-05-11T10:52:42.894Z,4.38
2023-05-11T10:55:27.331Z,4.18
2023-05-11T10:57:56.572Z,4.28
2023-05-11T11:00:47.826Z,3.97
2023-05-11T11:03:15.420Z,3.83
2023-05-11T11:05:43.772Z,3.80
2023-05-11T11:08:10.246Z,3.97
2023-05-11T11:10:37.856Z,17.10
2023-05-11T11:13:11.650Z,35.35
2023-05-11T11:15:53.394Z,9.32
2023-05-11T11:18:23.887Z,4.00
2023-05-11T11:20:51.192Z,9.93
2023-05-11T11:23:36.228Z,3.35
2023-05-11T11:26:02.997Z,3.63
2023-05-11T11:31:15.493Z,4.28
2023-05-11T11:33:41.746Z,3.85
2023-05-11T11:36:08.014Z,3.85
2023-05-11T11:38:54.175Z,4.28
2023-05-11T11:41:30.009Z,3.88
2023-05-11T11:43:56.465Z,3.42
2023-05-11T11:46:29.787Z,3.50
2023-05-11T11:49:08.982Z,4.00
2023-05-11T11:51:37.276Z,4.07
2023-05-11T11:54:04.164Z,3.42
2023-05-11T11:59:00.762Z,3.60
2023-05-11T12:01:29.459Z,3.95
2023-05-11T12:04:10.996Z,3.85
2023-05-11T12:06:39.343Z,4.32
2023-05-11T12:09:06.231Z,4.40
2023-05-11T12:13:59.529Z,4.03
2023-05-11T12:16:25.844Z,4.82
2023-05-11T12:18:53.977Z,5.03
2023-05-11T12:21:21.120Z,5.90
2023-05-11T12:23:54.725Z,4.55
2023-05-11T12:26:24.452Z,5.32
2023-05-11T12:28:51.247Z,4.63
2023-05-11T12:33:51.085Z,4.47
2023-05-11T12:36:18.102Z,4.38
2023-05-11T12:38:45.017Z,5.03
2023-05-11T12:43:37.849Z,3.88
2023-05-11T12:46:04.126Z,4.00
2023-05-11T12:48:30.401Z,4.35
2023-05-11T12:50:56.872Z,3.63
2023-05-11T12:53:23.117Z,4.25
2023-05-11T12:55:58.918Z,4.15
2023-05-11T12:58:25.278Z,3.28
2023-05-11T13:00:55.645Z,3.22
2023-05-11T13:03:22.989Z,3.35
2023-05-11T13:05:49.381Z,3.47
2023-05-11T13:08:18.761Z,3.70
2023-05-11T13:10:45.448Z,3.55
2023-05-11T13:13:11.917Z,3.63
2023-05-11T13:16:05.139Z,3.58
2023-05-11T13:18:31.430Z,4.00
2023-05-11T13:21:07.397Z,3.25
2023-05-11T13:23:33.801Z,3.80
2023-05-11T13:26:00.498Z,3.00
2023-05-11T13:31:00.735Z,3.60
2023-05-11T13:33:27.200Z,2.78
2023-05-11T13:35:53.875Z,3.20
2023-05-11T13:38:20.198Z,3.35
2023-05-11T13:40:46.579Z,2.92
2023-05-11T13:43:12.850Z,3.78
2023-05-11T13:45:41.020Z,3.47
2023-05-11T13:48:07.352Z,3.55
2023-05-11T13:50:33.612Z,3.35
2023-05-11T13:52:59.857Z,3.42
2023-05-11T13:55:26.112Z,2.90
2023-05-11T13:57:52.440Z,3.50
2023-05-11T14:00:19.639Z,3.78
2023-05-11T14:02:48.036Z,2.97
2023-05-11T14:05:14.448Z,3.03
2023-05-11T14:07:47.744Z,2.97
2023-05-11T14:10:14.454Z,3.33
2023-05-11T14:12:40.936Z,3.38
2023-05-11T14:15:07.602Z,3.10
2023-05-11T14:17:33.929Z,3.20
2023-05-11T14:20:00.220Z,3.05
2023-05-11T14:22:28.357Z,3.60
2023-05-11T14:24:54.598Z,2.92
2023-05-11T14:27:20.987Z,3.03
2023-05-11T14:29:47.195Z,3.45
2023-05-11T14:32:13.467Z,3.65
2023-05-11T14:34:39.737Z,3.28
2023-05-11T14:37:06.007Z,3.13
2023-05-11T14:39:32.245Z,3.53
2023-05-11T14:41:58.438Z,2.97
2023-05-11T14:44:24.787Z,3.25
2023-05-11T14:46:51.100Z,3.10
2023-05-11T14:49:17.566Z,3.20
2023-05-11T14:51:43.832Z,4.05
2023-05-11T14:54:10.136Z,3.45
2023-05-11T14:56:36.439Z,3.08
2023-05-11T14:59:02.802Z,3.15
2023-05-11T15:01:29.113Z,3.55
2023-05-11T15:03:55.599Z,3.17
2023-05-11T15:06:22.348Z,3.10
2023-05-11T15:08:49.348Z,3.55
2023-05-11T15:11:15.828Z,3.80
2023-05-11T15:13:42.042Z,3.22
2023-05-11T15:16:08.470Z,3.13
2023-05-11T15:18:34.957Z,2.97
2023-05-11T15:21:03.849Z,3.30
2023-05-11T15:23:30.069Z,3.08
2023-05-11T15:25:58.466Z,3.10
2023-05-11T15:28:25.068Z,3.88
2023-05-11T15:30:51.329Z,3.53
2023-05-11T15:33:18.138Z,3.35
2023-05-11T15:38:10.883Z,3.00
2023-05-11T15:40:37.162Z,3.50
2023-05-11T15:43:03.596Z,3.00
2023-05-11T15:45:30.192Z,3.83
2023-05-11T15:47:57.330Z,2.92
2023-05-11T15:50:24.360Z,3.67
2023-05-11T15:52:50.645Z,3.10
2023-05-11T15:55:16.933Z,3.42
2023-05-11T15:57:43.204Z,2.85
2023-05-11T16:00:10.481Z,3.08
2023-05-11T16:02:36.798Z,2.97
2023-05-11T16:05:03.144Z,2.92
2023-05-11T16:07:29.776Z,3.40
2023-05-11T16:09:56.038Z,3.58
2023-05-11T16:12:22.277Z,3.08
2023-05-11T16:14:48.533Z,3.20
2023-05-11T16:17:15.225Z,2.70
2023-05-11T16:19:41.499Z,2.78
2023-05-11T16:22:07.810Z,3.60
2023-05-11T16:24:34.623Z,2.95
2023-05-11T16:27:01.058Z,2.72
2023-05-11T16:29:27.393Z,2.70
2023-05-11T16:31:53.657Z,2.65
2023-05-11T16:34:20.151Z,2.60
2023-05-11T16:36:46.389Z,3.03
2023-05-11T16:39:12.637Z,2.35
2023-05-11T16:41:39.745Z,2.00
2023-05-11T16:44:05.981Z,2.17
2023-05-11T16:46:32.332Z,2.20
2023-05-11T16:48:58.784Z,2.80
2023-05-11T16:51:25.167Z,2.78
2023-05-11T16:53:51.393Z,2.65
2023-05-11T16:56:17.680Z,2.53
2023-05-11T16:58:43.898Z,3.15
2023-05-11T17:01:10.848Z,2.90
2023-05-11T17:03:37.425Z,3.28
2023-05-11T17:06:03.768Z,2.95
2023-05-11T17:08:30.107Z,2.33
2023-05-11T17:10:56.543Z,2.58
2023-05-11T17:13:22.782Z,2.33
2023-05-11T17:15:51.314Z,2.00
2023-05-11T17:18:17.816Z,2.17
2023-05-11T17:20:44.024Z,1.88
2023-05-11T17:23:10.391Z,2.45
2023-05-11T17:25:37.110Z,2.20
2023-05-11T17:28:03.324Z,2.08
2023-05-11T17:30:36.293Z,2.20
2023-05-11T17:33:13.438Z,2.30
2023-05-11T17:35:39.845Z,2.65
2023-05-11T17:38:07.350Z,3.30
2023-05-11T17:40:33.652Z,3.40
2023-05-11T17:42:59.912Z,4.05
2023-05-11T17:45:26.137Z,3.90
2023-05-11T17:47:54.251Z,4.20
2023-05-11T17:50:20.641Z,3.72
2023-05-11T17:52:48.810Z,4.22
2023-05-11T17:55:17.283Z,5.55
2023-05-11T17:57:43.764Z,4.97
2023-05-11T18:00:10.839Z,5.35
2023-05-11T18:02:37.174Z,5.63
2023-05-11T18:05:03.594Z,6.15
2023-05-11T18:07:29.826Z,5.43
2023-05-11T18:09:56.259Z,4.82
2023-05-11T18:12:22.835Z,5.32
2023-05-11T18:14:49.043Z,5.10
2023-05-11T18:17:15.258Z,4.82
2023-05-11T18:19:41.468Z,5.55
2023-05-11T18:22:07.749Z,4.55
2023-05-11T18:24:33.972Z,3.88
2023-05-11T18:27:00.221Z,3.55
2023-05-11T18:29:26.484Z,4.43
2023-05-11T18:31:53.271Z,4.15
2023-05-11T18:34:19.550Z,3.25
2023-05-11T18:36:45.774Z,3.28
2023-05-11T18:39:12.593Z,3.10
2023-05-11T18:41:38.846Z,2.42
2023-05-11T18:44:05.231Z,2.80
2023-05-11T18:46:31.484Z,3.10
2023-05-11T18:48:57.704Z,3.30
2023-05-11T18:51:24.050Z,3.35
2023-05-11T18:53:50.281Z,3.17
2023-05-11T18:56:17.247Z,2.78
2023-05-11T19:01:10.004Z,2.42
2023-05-11T19:03:36.448Z,2.33
2023-05-11T19:06:02.685Z,2.50
2023-05-11T19:08:29.413Z,2.50
2023-05-11T19:10:55.763Z,1.98
2023-05-11T19:13:22.036Z,2.00
2023-05-11T19:15:48.289Z,1.73
2023-05-11T19:18:14.633Z,2.00
2023-05-11T19:20:41.094Z,1.85
2023-05-11T19:23:07.370Z,1.70
2023-05-11T19:25:33.617Z,1.75
2023-05-11T19:28:00.026Z,1.85
2023-05-11T19:30:26.242Z,1.70
2023-05-11T19:32:52.513Z,2.17
2023-05-11T19:35:19.022Z,2.20
2023-05-11T19:37:48.005Z,2.17
2023-05-11T19:40:43.097Z,2.30
2023-05-11T19:43:03.357Z,1.67
2023-05-11T19:45:33.115Z,2.10
2023-05-11T19:47:59.644Z,2.17
2023-05-11T19:50:26.115Z,2.10
2023-05-11T19:52:52.554Z,1.90
2023-05-11T19:55:18.778Z,2.40
2023-05-11T19:57:44.993Z,2.40
2023-05-11T20:00:11.726Z,2.10
2023-05-11T20:02:38.044Z,2.00
2023-05-11T20:05:04.541Z,2.53
2023-05-11T20:07:31.866Z,2.42
2023-05-11T20:09:58.100Z,2.25
2023-05-11T20:12:24.315Z,2.60
2023-05-11T20:14:50.975Z,3.20
2023-05-11T20:17:17.211Z,2.88
2023-05-11T20:19:43.437Z,2.85
2023-05-11T20:22:09.716Z,3.13
2023-05-11T20:24:36.624Z,2.88
2023-05-11T20:29:36.106Z,3.22
2023-05-11T20:32:02.622Z,3.80
2023-05-11T20:34:28.958Z,4.35
2023-05-11T20:36:55.300Z,4.25
2023-05-11T20:39:21.926Z,4.82
2023-05-11T20:41:49.970Z,4.25
2023-05-11T20:44:16.830Z,4.65
2023-05-11T20:46:43.263Z,4.20
2023-05-11T20:49:13.535Z,4.38
2023-05-11T20:51:40.184Z,4.53
2023-05-11T20:54:07.392Z,5.53
2023-05-11T20:56:33.984Z,4.90
2023-05-11T20:59:00.225Z,6.63
2023-05-11T21:01:26.621Z,4.68
2023-05-11T21:03:52.911Z,5.00
2023-05-11T21:06:19.157Z,5.05
2023-05-11T21:08:45.484Z,6.22
2023-05-11T21:11:11.720Z,5.63
2023-05-11T21:13:38.043Z,6.20
2023-05-11T21:16:04.408Z,5.13
2023-05-11T21:18:34.674Z,5.25
2023-05-11T21:21:01.292Z,5.80
2023-05-11T21:23:28.264Z,6.47
2023-05-11T21:28:21.042Z,6.75
2023-05-11T21:30:47.284Z,7.35
2023-05-11T21:33:14.723Z,7.22
2023-05-11T21:35:41.026Z,6.97
2023-05-11T21:38:07.253Z,8.70
2023-05-11T21:40:33.515Z,8.50
2023-05-11T21:42:59.952Z,8.10
2023-05-11T21:45:26.392Z,8.63
2023-05-11T21:47:52.691Z,9.55
2023-05-11T21:50:19.096Z,10.13
2023-05-11T21:52:45.482Z,10.45
2023-05-11T21:55:11.728Z,10.77
2023-05-11T21:57:37.926Z,11.15
2023-05-11T22:00:04.465Z,10.45
2023-05-11T22:02:30.772Z,11.25
2023-05-11T22:04:57.105Z,12.25
2023-05-11T22:07:23.330Z,11.73
2023-05-11T22:09:49.569Z,12.45
2023-05-11T22:12:16.163Z,12.63
2023-05-11T22:14:42.478Z,12.35
2023-05-11T22:17:08.777Z,12.65
2023-05-11T22:19:35.061Z,12.90
2023-05-11T22:22:01.385Z,12.38
2023-05-11T22:24:27.670Z,13.77
2023-05-11T22:26:54.163Z,13.05
2023-05-11T22:29:20.705Z,12.65
2023-05-11T22:31:48.824Z,12.30
2023-05-11T22:34:15.355Z,13.65
2023-05-11T22:36:41.581Z,12.48
2023-05-11T22:39:08.061Z,14.05
2023-05-11T22:41:34.508Z,13.90
2023-05-11T22:44:01.010Z,14.30
2023-05-11T22:46:27.300Z,13.73
2023-05-11T22:48:53.567Z,14.77
2023-05-11T22:51:19.810Z,15.25
2023-05-11T22:53:46.258Z,15.18
2023-05-11T22:56:12.773Z,15.57
2023-05-11T22:58:38.986Z,15.15
2023-05-11T23:01:05.296Z,15.80
2023-05-11T23:03:31.562Z,15.70
2023-05-11T23:05:57.872Z,15.20
2023-05-11T23:08:26.448Z,16.40
2023-05-11T23:10:52.759Z,17.50
2023-05-11T23:13:19.668Z,15.75
2023-05-11T23:18:12.146Z,20.67
2023-05-11T23:20:38.533Z,17.85
2023-05-11T23:23:04.747Z,17.38
2023-05-11T23:25:31.005Z,16.88
2023-05-11T23:27:57.210Z,17.02
2023-05-11T23:30:23.494Z,17.10
2023-05-11T23:32:49.772Z,17.08
2023-05-11T23:35:16.114Z,17.77
2023-05-11T23:37:42.307Z,15.75
2023-05-11T23:40:09.208Z,16.25
2023-05-11T23:45:04.331Z,15.55
2023-05-11T23:47:31.398Z,16.75
2023-05-11T23:49:58.033Z,15.27
2023-05-11T23:52:24.306Z,14.45
2023-05-11T23:54:52.362Z,13.98
2023-05-11T23:57:18.682Z,13.32
2023-05-11T23:59:44.900Z,13.38
